Hartford, Connecticut
Traffic Map
Current Weather Conditions
Hartford, Connecticut
Scattered Clouds
Scattered Clouds
23°
Feels Like: 23°
Wind Chill: 23° Ceiling: Unl
Heat Index: 23° Visibility: 10mi
Dew Point: 16° Wind: 8mph
Humidity: 66% Direction: 350° (N)
Pressure: 29.95in Gusts: 0mph
Raw Report DataKHFD 042153Z 35007KT 320V050 10SM SCT028 23/16 A2995 RMK AO2 SLP142 T02280161
Traffic Incident Summary
Active as of:
Severity:
Category:
InformationThere was an issue retrieving the traffic information for this location. Please try a different location or try again shortly.
Advertisements
Track Severe Weather on mobile